Terminal Aerodrome Forecast
Issued by NWS Wilmington, OH

Current Version | Previous Version | Text Only | Print | Product List | Glossary Off
Versions: 1 2 3 4 5 6 7 8 9 10 11 12 13 14 15 16

000
FTUS41 KILN 261139
TAFILN
TAF
KILN 261139Z 2612/2712 21008KT P6SM SCT020 SCT060 BKN150
     FM261800 21011KT P6SM BKN035
     FM270000 19005KT P6SM FEW040 BKN250=

USA.gov is the U.S. government's official web portal to all federal, state and local government web resources and services.